Time;durP1;ratioP1;P1;durP2;ratioP2;P2;SDS_P1;SDS_P2;PMS_P1;PMS_P2;Temp;Humidity;BMP_temperature;BMP_pressure;BME280_temperature;BME280_humidity;BME280_pressure;Samples;Min_cycle;Max_cycle;Signal;HPM_P1;HPM_P2
2023/03/16 00:00:03;;;;;;;0.20;0.20;;;21.50;30.10;;;;;;5073085;28;20047;-59
2023/03/16 00:02:30;;;;;;;1.00;0.30;;;21.50;30.10;;;;;;5089940;28;20074;-59
2023/03/16 00:04:57;;;;;;;0.60;0.52;;;21.50;30.10;;;;;;5090567;28;20122;-59
2023/03/16 00:07:25;;;;;;;0.20;0.20;;;21.50;30.10;;;;;;5093124;28;20091;-59
2023/03/16 00:09:53;;;;;;;0.40;0.40;;;21.50;30.10;;;;;;5092077;28;20066;-59
2023/03/16 00:12:21;;;;;;;0.55;0.30;;;21.50;30.20;;;;;;5095719;28;20044;-59
2023/03/16 00:14:49;;;;;;;0.50;0.45;;;21.50;30.10;;;;;;5092494;28;20119;-59
2023/03/16 00:17:18;;;;;;;0.30;0.30;;;21.50;30.10;;;;;;5093261;28;20495;-59
2023/03/16 00:19:54;;;;;;;0.77;0.20;;;21.50;30.10;;;;;;5093104;28;20135;-60
2023/03/16 00:22:24;;;;;;;1.55;0.30;;;21.50;30.20;;;;;;5093828;28;20519;-59
2023/03/16 00:24:52;;;;;;;0.28;0.22;;;21.50;30.20;;;;;;5093289;28;20123;-59
2023/03/16 00:27:21;;;;;;;0.20;0.20;;;21.50;30.80;;;;;;5094501;28;20373;-59
2023/03/16 00:29:54;;;;;;;0.95;0.30;;;21.50;30.20;;;;;;5094329;28;20044;-59
2023/03/16 00:32:28;;;;;;;0.10;0.10;;;21.40;30.20;;;;;;5092644;28;20044;-59
2023/03/16 00:34:56;;;;;;;0.20;0.20;;;21.40;30.20;;;;;;5094500;28;20082;-59
2023/03/16 00:37:25;;;;;;;0.30;0.30;;;21.40;30.20;;;;;;5092214;28;20130;-59
2023/03/16 00:39:55;;;;;;;0.30;0.30;;;21.40;30.20;;;;;;5093166;28;20044;-59
2023/03/16 00:42:26;;;;;;;0.40;0.30;;;21.40;30.20;;;;;;5093120;28;20044;-59
2023/03/16 00:44:56;;;;;;;0.30;0.10;;;21.40;30.30;;;;;;5092958;28;20050;-59
2023/03/16 00:47:27;;;;;;;0.52;0.30;;;21.40;30.30;;;;;;5092627;28;20126;-59
2023/03/16 00:49:54;;;;;;;0.47;0.45;;;21.40;30.30;;;;;;5091611;28;20079;-59
2023/03/16 00:52:22;;;;;;;0.10;0.10;;;21.40;30.30;;;;;;5093388;28;20123;-59
2023/03/16 00:54:53;;;;;;;0.30;0.20;;;21.40;30.30;;;;;;5094918;28;20046;-59
2023/03/16 00:57:23;;;;;;;0.28;0.20;;;21.40;30.30;;;;;;5093547;28;20098;-59
2023/03/16 00:59:51;;;;;;;;;;;21.40;30.30;;;;;;5092860;28;20499;-59
2023/03/16 01:02:22;;;;;;;0.47;0.20;;;21.40;30.30;;;;;;5092970;28;20260;-59
2023/03/16 01:04:53;;;;;;;0.30;0.30;;;21.40;30.30;;;;;;5092949;28;20090;-59
2023/03/16 01:07:20;;;;;;;0.45;0.25;;;21.40;30.40;;;;;;5092754;28;20123;-59
2023/03/16 01:09:48;;;;;;;0.45;0.30;;;21.40;30.40;;;;;;5092038;28;20083;-60
2023/03/16 01:12:17;;;;;;;0.45;0.45;;;21.40;30.40;;;;;;5093917;28;20052;-59
2023/03/16 01:14:45;;;;;;;0.53;0.20;;;21.40;30.40;;;;;;5092661;28;20098;-59
2023/03/16 01:17:13;;;;;;;0.70;0.22;;;21.40;30.40;;;;;;5093126;28;20127;-59
2023/03/16 01:19:41;;;;;;;0.35;0.30;;;21.40;31.00;;;;;;5092431;28;20127;-59
2023/03/16 01:22:10;;;;;;;1.05;0.30;;;21.30;30.50;;;;;;5092697;28;20480;-59
2023/03/16 01:24:38;;;;;;;0.30;0.28;;;21.30;30.40;;;;;;5093581;28;20044;-59
2023/03/16 01:27:06;;;;;;;0.55;0.20;;;21.30;30.40;;;;;;5092306;28;20151;-59
2023/03/16 01:29:34;;;;;;;0.57;0.20;;;21.30;30.40;;;;;;5092998;28;20075;-59
2023/03/16 01:32:03;;;;;;;0.50;0.15;;;21.30;30.50;;;;;;5093668;28;20044;-59
2023/03/16 01:34:31;;;;;;;0.30;0.20;;;21.40;30.60;;;;;;5092877;28;20082;-59
2023/03/16 01:36:59;;;;;;;0.10;0.10;;;21.30;30.50;;;;;;5093069;28;20091;-59
2023/03/16 01:39:27;;;;;;;0.32;0.15;;;21.30;30.50;;;;;;5092646;28;20122;-59
2023/03/16 01:41:54;;;;;;;0.17;0.17;;;21.30;30.50;;;;;;5092407;28;20090;-59
2023/03/16 01:44:29;;;;;;;1.20;0.15;;;21.30;30.50;;;;;;5093639;28;20058;-59
2023/03/16 01:46:56;;;;;;;0.68;0.20;;;21.30;30.50;;;;;;5091124;28;20083;-59
2023/03/16 01:49:31;;;;;;;0.75;0.38;;;21.30;30.50;;;;;;5092361;28;20417;-59
2023/03/16 01:52:09;;;;;;;0.20;0.20;;;21.30;30.50;;;;;;5091796;28;20080;-60
2023/03/16 01:54:47;;;;;;;0.47;0.20;;;21.30;30.50;;;;;;5090173;28;20523;-59
2023/03/16 01:57:20;;;;;;;0.22;0.20;;;21.30;30.50;;;;;;5092121;28;20044;-59
2023/03/16 01:59:55;;;;;;;0.32;0.30;;;21.30;30.60;;;;;;5092271;28;20047;-59
2023/03/16 02:02:25;;;;;;;0.20;0.20;;;21.30;30.60;;;;;;5090596;28;20054;-59
2023/03/16 02:05:11;;;;;;;0.22;0.22;;;21.30;30.60;;;;;;5091559;28;20490;-59
2023/03/16 02:07:50;;;;;;;0.35;0.20;;;21.30;30.60;;;;;;5091957;28;20587;-59
2023/03/16 02:10:19;;;;;;;0.10;0.10;;;21.30;30.60;;;;;;5091832;28;20054;-59
2023/03/16 02:12:46;;;;;;;1.10;0.30;;;21.30;30.60;;;;;;5091692;28;20083;-59
2023/03/16 02:15:14;;;;;;;0.47;0.25;;;21.30;30.70;;;;;;5092274;28;20127;-59
2023/03/16 02:17:43;;;;;;;0.40;0.22;;;21.30;30.60;;;;;;5091675;28;20052;-59
2023/03/16 02:20:41;;;;;;;0.47;0.30;;;21.30;30.60;;;;;;5090675;28;20072;-60
2023/03/16 02:23:17;;;;;;;0.20;0.10;;;21.40;30.70;;;;;;5091410;28;20058;-59
2023/03/16 02:26:14;;;;;;;0.35;0.20;;;21.30;30.70;;;;;;5092565;28;20044;-59
2023/03/16 02:29:10;;;;;;;0.40;0.10;;;21.30;30.60;;;;;;5091068;28;20055;-59
2023/03/16 02:31:38;;;;;;;0.20;0.20;;;21.30;30.70;;;;;;5091001;28;20071;-59
2023/03/16 02:34:05;;;;;;;0.22;0.22;;;21.30;30.70;;;;;;5092056;28;20043;-59
2023/03/16 02:36:35;;;;;;;0.30;0.20;;;21.30;30.70;;;;;;5091820;28;20674;-59
2023/03/16 02:39:04;;;;;;;0.77;0.20;;;21.30;30.70;;;;;;5091079;28;20046;-60
2023/03/16 02:41:32;;;;;;;0.40;0.40;;;21.30;30.70;;;;;;5091570;28;20044;-59
2023/03/16 02:44:09;;;;;;;0.43;0.17;;;21.30;30.70;;;;;;5092005;28;20054;-59
2023/03/16 02:46:37;;;;;;;0.52;0.20;;;21.30;30.70;;;;;;5090985;28;20474;-59
2023/03/16 02:49:27;;;;;;;0.93;0.63;;;21.30;30.70;;;;;;5090593;28;20067;-60
2023/03/16 02:51:56;;;;;;;0.35;0.30;;;21.30;30.70;;;;;;5091147;28;20135;-59
2023/03/16 02:54:23;;;;;;;0.32;0.32;;;21.20;30.70;;;;;;5090304;28;20128;-59
2023/03/16 02:56:50;;;;;;;0.20;0.20;;;21.20;30.70;;;;;;5090289;28;20044;-59
2023/03/16 02:59:18;;;;;;;0.30;0.30;;;21.20;30.70;;;;;;5088952;28;20086;-59
2023/03/16 03:01:45;;;;;;;0.47;0.30;;;21.20;30.70;;;;;;5091706;28;20044;-59
2023/03/16 03:04:12;;;;;;;1.00;0.10;;;21.20;30.70;;;;;;5090246;28;20091;-59
2023/03/16 03:06:40;;;;;;;0.85;0.38;;;21.20;30.70;;;;;;5091058;28;20076;-59
2023/03/16 03:09:10;;;;;;;0.30;0.28;;;21.20;30.70;;;;;;5090267;28;20484;-60
2023/03/16 03:11:38;;;;;;;0.43;0.20;;;21.20;30.70;;;;;;5091011;28;20056;-59
2023/03/16 03:14:05;;;;;;;0.30;0.30;;;21.20;30.70;;;;;;5090913;28;20048;-59
2023/03/16 03:16:32;;;;;;;0.10;0.10;;;21.20;30.70;;;;;;5086366;28;20047;-59
2023/03/16 03:18:59;;;;;;;0.38;0.20;;;21.20;30.70;;;;;;5091376;28;20044;-59
2023/03/16 03:21:27;;;;;;;0.20;0.20;;;21.20;30.70;;;;;;5090633;28;20130;-59
2023/03/16 03:23:54;;;;;;;1.20;0.20;;;21.20;30.70;;;;;;5089541;28;20044;-59
2023/03/16 03:26:23;;;;;;;0.47;0.20;;;21.20;30.70;;;;;;5090557;28;20044;-59
2023/03/16 03:28:51;;;;;;;2.38;0.22;;;21.20;30.70;;;;;;5090274;28;20082;-59
2023/03/16 03:31:21;;;;;;;0.60;0.30;;;21.20;30.70;;;;;;5090162;28;20054;-60
2023/03/16 03:33:48;;;;;;;;;;;21.20;30.70;;;;;;5090833;28;20484;-59
2023/03/16 03:36:16;;;;;;;0.20;0.20;;;21.20;30.70;;;;;;5090863;28;19926;-59
2023/03/16 03:38:43;;;;;;;0.75;0.45;;;21.20;31.30;;;;;;5090744;28;20153;-59
2023/03/16 03:41:10;;;;;;;0.50;0.13;;;21.20;30.70;;;;;;5092807;28;20046;-59
2023/03/16 03:43:37;;;;;;;0.50;0.40;;;21.20;30.70;;;;;;5094575;28;20079;-59
2023/03/16 03:46:04;;;;;;;0.43;0.10;;;21.20;30.70;;;;;;5095071;28;20048;-59
2023/03/16 03:48:32;;;;;;;0.22;0.22;;;21.10;30.70;;;;;;5093895;28;20055;-59
2023/03/16 03:50:59;;;;;;;0.98;0.20;;;21.10;30.70;;;;;;5094720;28;20051;-59
2023/03/16 03:53:27;;;;;;;0.20;0.20;;;21.10;30.70;;;;;;5091666;28;20501;-59
2023/03/16 03:55:54;;;;;;;0.40;0.20;;;21.10;30.70;;;;;;5093360;28;20407;-59
2023/03/16 03:58:21;;;;;;;0.32;0.28;;;21.20;30.70;;;;;;5092494;28;20086;-59
2023/03/16 04:00:48;;;;;;;0.10;0.10;;;21.10;30.70;;;;;;5094485;28;20048;-59
2023/03/16 04:03:16;;;;;;;0.47;0.22;;;21.10;30.70;;;;;;5093797;28;20040;-60
2023/03/16 04:05:43;;;;;;;0.30;0.28;;;21.10;30.70;;;;;;5094693;28;20043;-59
2023/03/16 04:08:10;;;;;;;0.60;0.20;;;21.10;30.70;;;;;;5093128;28;20123;-59
2023/03/16 04:10:38;;;;;;;0.10;0.10;;;21.10;30.70;;;;;;5094900;28;20059;-59
2023/03/16 04:13:05;;;;;;;0.25;0.25;;;21.10;30.70;;;;;;5093075;28;20138;-59
2023/03/16 04:15:32;;;;;;;0.60;0.40;;;21.10;30.70;;;;;;5093077;28;20040;-59
2023/03/16 04:18:00;;;;;;;0.70;0.43;;;21.10;30.70;;;;;;5093902;28;20381;-59
2023/03/16 04:20:28;;;;;;;0.20;0.20;;;21.10;30.70;;;;;;5091151;28;20040;-59
2023/03/16 04:22:57;;;;;;;0.90;0.20;;;21.10;30.70;;;;;;5092554;28;20484;-59
2023/03/16 04:25:26;;;;;;;0.20;0.20;;;21.10;30.70;;;;;;5094312;28;20119;-59
2023/03/16 04:27:53;;;;;;;0.28;0.20;;;21.10;30.70;;;;;;5092579;28;20172;-59
2023/03/16 04:30:22;;;;;;;0.20;0.20;;;21.10;30.70;;;;;;5092782;28;20487;-60
2023/03/16 04:32:51;;;;;;;0.47;0.30;;;21.10;30.70;;;;;;5092739;28;20040;-59
2023/03/16 04:35:18;;;;;;;0.20;0.20;;;21.10;30.70;;;;;;5092859;28;20480;-59
2023/03/16 04:37:45;;;;;;;0.32;0.30;;;21.10;30.70;;;;;;5091897;28;20071;-59
2023/03/16 04:40:16;;;;;;;0.50;0.10;;;21.10;30.70;;;;;;5093413;28;20066;-59
2023/03/16 04:42:44;;;;;;;;;;;21.10;30.70;;;;;;5091842;28;20502;-59
2023/03/16 04:45:11;;;;;;;0.70;0.35;;;21.10;30.70;;;;;;5091806;28;19963;-59
2023/03/16 04:47:39;;;;;;;0.17;0.13;;;21.10;30.70;;;;;;5083138;28;20044;-59
2023/03/16 04:50:09;;;;;;;0.03;0.03;;;21.10;30.80;;;;;;5088845;28;20140;-59
2023/03/16 04:52:36;;;;;;;0.32;0.20;;;21.10;30.80;;;;;;5079806;28;20500;-59
2023/03/16 04:55:04;;;;;;;0.20;0.20;;;21.10;30.80;;;;;;5087109;28;20048;-59
2023/03/16 04:57:32;;;;;;;0.30;0.10;;;21.10;30.80;;;;;;5092619;28;20044;-59
2023/03/16 04:59:59;;;;;;;0.40;0.20;;;21.10;30.80;;;;;;5090133;28;20054;-59
2023/03/16 05:02:27;;;;;;;0.32;0.32;;;21.10;30.80;;;;;;5092167;28;20230;-59
2023/03/16 05:04:54;;;;;;;0.52;0.28;;;21.10;30.80;;;;;;5092766;28;20036;-59
2023/03/16 05:07:21;;;;;;;0.10;0.10;;;21.10;30.80;;;;;;5091779;28;20126;-59
2023/03/16 05:09:48;;;;;;;0.60;0.30;;;21.10;30.80;;;;;;5093651;28;20040;-59
2023/03/16 05:12:15;;;;;;;0.57;0.15;;;21.10;30.80;;;;;;5093369;28;20058;-59
2023/03/16 05:14:42;;;;;;;0.20;0.13;;;21.10;30.80;;;;;;5091008;28;20044;-59
2023/03/16 05:17:13;;;;;;;0.38;0.10;;;21.10;30.80;;;;;;5092985;28;20067;-59
2023/03/16 05:19:41;;;;;;;0.13;0.10;;;21.10;30.80;;;;;;5088456;28;20131;-59
2023/03/16 05:22:08;;;;;;;0.20;0.20;;;21.10;30.80;;;;;;5091204;28;20130;-59
2023/03/16 05:24:36;;;;;;;0.43;0.30;;;21.10;30.80;;;;;;5090528;28;20485;-59
2023/03/16 05:27:03;;;;;;;0.25;0.25;;;21.10;30.80;;;;;;5091665;28;20135;-59
2023/03/16 05:29:30;;;;;;;0.10;0.10;;;21.10;30.80;;;;;;5091123;28;20136;-59
2023/03/16 05:31:58;;;;;;;0.45;0.10;;;21.10;30.80;;;;;;5091909;28;20126;-59
2023/03/16 05:34:26;;;;;;;0.65;0.40;;;21.10;30.80;;;;;;5092620;28;20453;-59
2023/03/16 05:36:53;;;;;;;0.57;0.40;;;21.10;30.80;;;;;;5091515;28;20044;-59
2023/03/16 05:39:21;;;;;;;0.80;0.68;;;21.10;30.60;;;;;;5091673;28;20068;-59
2023/03/16 05:41:48;;;;;;;0.43;0.40;;;21.10;30.50;;;;;;5090849;28;20082;-59
2023/03/16 05:44:15;;;;;;;0.40;0.30;;;21.10;30.50;;;;;;5090322;28;20044;-59
2023/03/16 05:46:44;;;;;;;0.40;0.40;;;21.10;30.50;;;;;;5091806;28;20054;-59
2023/03/16 05:49:12;;;;;;;0.60;0.60;;;21.10;30.60;;;;;;5090936;28;20040;-59
2023/03/16 05:51:39;;;;;;;0.50;0.45;;;21.00;30.50;;;;;;5088360;28;20131;-59
2023/03/16 05:54:06;;;;;;;0.47;0.47;;;21.00;31.10;;;;;;5092434;28;20145;-59
2023/03/16 05:56:33;;;;;;;0.63;0.63;;;21.00;30.50;;;;;;5091089;28;20500;-60
2023/03/16 05:59:01;;;;;;;0.60;0.55;;;21.00;30.50;;;;;;5088034;28;20044;-59
2023/03/16 06:01:28;;;;;;;0.80;0.70;;;21.00;30.40;;;;;;5090304;28;20044;-59
2023/03/16 06:03:55;;;;;;;0.52;0.52;;;21.10;30.50;;;;;;5089420;28;20135;-59
2023/03/16 06:06:23;;;;;;;1.00;0.70;;;21.10;30.50;;;;;;5093012;28;20090;-59
2023/03/16 06:08:50;;;;;;;1.17;0.55;;;21.10;30.40;;;;;;5090755;28;20075;-59
2023/03/16 06:11:17;;;;;;;0.63;0.63;;;21.10;30.40;;;;;;5091425;28;20480;-59
2023/03/16 06:13:44;;;;;;;0.55;0.55;;;21.20;30.40;;;;;;5089210;28;20221;-59
2023/03/16 06:16:13;;;;;;;0.70;0.63;;;21.20;30.30;;;;;;5088194;28;20048;-59
2023/03/16 06:18:40;;;;;;;1.23;0.80;;;21.20;30.30;;;;;;5089170;28;20071;-58
2023/03/16 06:21:08;;;;;;;0.75;0.70;;;21.30;30.30;;;;;;5085756;28;20062;-58
2023/03/16 06:23:35;;;;;;;1.88;0.85;;;21.30;30.30;;;;;;5082478;28;20062;-58
2023/03/16 06:26:02;;;;;;;2.38;0.60;;;21.40;30.40;;;;;;5075815;28;20483;-58
2023/03/16 06:28:29;;;;;;;0.80;0.80;;;21.40;31.00;;;;;;5077797;28;20136;-56
2023/03/16 06:30:57;;;;;;;2.88;0.80;;;21.50;30.40;;;;;;5082836;28;20863;-58
2023/03/16 06:33:25;;;;;;;0.50;0.50;;;21.50;30.40;;;;;;5077473;28;21118;-60
2023/03/16 06:35:52;;;;;;;1.63;1.17;;;21.60;30.40;;;;;;5073260;28;20127;-57
2023/03/16 06:38:19;;;;;;;1.50;1.30;;;21.60;30.20;;;;;;5077378;28;20044;-61
2023/03/16 06:40:51;;;;;;;3.40;0.85;;;21.70;30.20;;;;;;5072995;28;20513;-59
2023/03/16 06:43:19;;;;;;;1.40;1.30;;;21.70;30.40;;;;;;5071776;28;20516;-59
2023/03/16 06:45:46;;;;;;;1.02;0.90;;;21.80;31.00;;;;;;5082706;28;20144;-59
2023/03/16 06:48:13;;;;;;;1.02;1.02;;;21.80;30.90;;;;;;5077047;28;20439;-59
2023/03/16 06:50:40;;;;;;;1.38;1.08;;;21.90;30.90;;;;;;5076311;28;20093;-59
2023/03/16 06:53:08;;;;;;;1.88;1.27;;;21.90;30.90;;;;;;5056190;28;20396;-59
2023/03/16 06:55:36;;;;;;;1.95;1.30;;;22.00;31.20;;;;;;5068805;28;20047;-60
2023/03/16 06:58:03;;;;;;;1.45;1.00;;;22.00;31.20;;;;;;5076375;28;20461;-60
2023/03/16 07:00:32;;;;;;;1.35;1.20;;;22.00;31.00;;;;;;5076251;28;20126;-59
2023/03/16 07:03:00;;;;;;;2.63;1.40;;;22.10;31.00;;;;;;5070615;28;20132;-59
2023/03/16 07:05:28;;;;;;;1.23;1.08;;;22.10;31.10;;;;;;5071911;28;20058;-59
2023/03/16 07:07:55;;;;;;;1.15;1.05;;;22.20;31.20;;;;;;5075738;28;20048;-59
2023/03/16 07:10:24;;;;;;;1.40;1.02;;;22.20;31.00;;;;;;5078261;28;20136;-59
2023/03/16 07:12:54;;;;;;;1.90;1.27;;;22.30;30.90;;;;;;5075124;28;20062;-60
2023/03/16 07:15:21;;;;;;;1.70;1.45;;;22.30;30.80;;;;;;5078311;28;20056;-59
2023/03/16 07:17:48;;;;;;;3.72;1.20;;;22.40;30.70;;;;;;5082626;28;20048;-60
2023/03/16 07:20:16;;;;;;;2.17;1.33;;;22.50;30.60;;;;;;5083147;28;20114;-59
2023/03/16 07:22:45;;;;;;;1.67;1.58;;;22.50;30.70;;;;;;5080435;28;20055;-59
2023/03/16 07:25:13;;;;;;;1.20;1.17;;;22.60;30.80;;;;;;5079713;28;20052;-59
2023/03/16 07:27:42;;;;;;;1.17;1.08;;;22.60;30.80;;;;;;5084180;28;20496;-58
2023/03/16 07:30:13;;;;;;;2.15;1.20;;;22.60;30.80;;;;;;5077703;28;20086;-59
2023/03/16 07:32:41;;;;;;;2.90;1.67;;;22.70;31.10;;;;;;5084356;28;20047;-59
2023/03/16 07:35:10;;;;;;;1.00;0.95;;;22.70;30.20;;;;;;5083180;28;20048;-59
2023/03/16 07:37:37;;;;;;;2.03;1.15;;;22.80;30.10;;;;;;5079078;28;20407;-58
2023/03/16 07:40:07;;;;;;;4.07;1.30;;;22.80;30.00;;;;;;5076486;28;20055;-58
2023/03/16 07:42:36;;;;;;;1.65;1.20;;;22.90;30.00;;;;;;5083530;28;20539;-59
2023/03/16 07:45:04;;;;;;;1.27;1.13;;;22.90;30.00;;;;;;5076305;28;20123;-58
2023/03/16 07:47:32;;;;;;;2.30;1.35;;;22.90;30.10;;;;;;5077872;28;21018;-60
2023/03/16 07:50:00;;;;;;;3.13;1.50;;;23.00;30.20;;;;;;5074750;28;20087;-56
2023/03/16 07:52:28;;;;;;;2.22;1.88;;;23.00;30.30;;;;;;5079520;28;20545;-59
2023/03/16 07:54:55;;;;;;;2.38;1.95;;;23.00;30.30;;;;;;5076710;28;20550;-59
2023/03/16 07:57:22;;;;;;;1.77;1.58;;;23.10;30.00;;;;;;5079913;28;20118;-59
2023/03/16 07:59:50;;;;;;;1.92;1.83;;;23.10;30.00;;;;;;5076816;28;20086;-59
2023/03/16 08:02:20;;;;;;;1.65;1.55;;;23.10;30.00;;;;;;5064453;28;20428;-58
2023/03/16 08:04:48;;;;;;;5.65;1.92;;;23.10;29.90;;;;;;5083020;28;20579;-59
2023/03/16 08:07:15;;;;;;;2.35;1.88;;;23.20;29.90;;;;;;5081202;28;20048;-58
2023/03/16 08:09:43;;;;;;;2.15;1.65;;;23.20;29.80;;;;;;5080592;28;20052;-58
2023/03/16 08:12:10;;;;;;;2.03;1.77;;;23.20;29.80;;;;;;5083247;28;20051;-58
2023/03/16 08:14:37;;;;;;;2.80;1.73;;;23.30;29.80;;;;;;5080151;28;20079;-61
2023/03/16 08:17:08;;;;;;;2.38;2.17;;;23.30;29.90;;;;;;5079938;28;20143;-59
2023/03/16 08:19:36;;;;;;;3.47;2.00;;;23.30;29.80;;;;;;5079751;28;20075;-58
2023/03/16 08:22:04;;;;;;;4.07;2.03;;;23.30;29.80;;;;;;5076391;28;20098;-59
2023/03/16 08:24:32;;;;;;;3.63;2.55;;;23.30;30.20;;;;;;5081747;28;20097;-58
2023/03/16 08:27:00;;;;;;;4.40;1.67;;;23.40;29.80;;;;;;5074818;28;20056;-58
2023/03/16 08:29:28;;;;;;;2.92;1.83;;;23.40;30.10;;;;;;5080522;28;20056;-59
2023/03/16 08:31:56;;;;;;;3.85;1.88;;;23.40;29.70;;;;;;5081373;28;20059;-58
2023/03/16 08:34:24;;;;;;;2.35;2.15;;;23.50;29.70;;;;;;5067238;28;20044;-59
2023/03/16 08:36:52;;;;;;;2.05;1.55;;;23.50;29.60;;;;;;5078125;28;20160;-60
2023/03/16 08:39:20;;;;;;;5.43;1.65;;;23.50;29.50;;;;;;5081736;28;20097;-60
2023/03/16 08:41:47;;;;;;;1.70;1.58;;;23.50;29.40;;;;;;5080378;28;20135;-59
2023/03/16 08:44:15;;;;;;;2.58;1.65;;;23.60;29.40;;;;;;5076869;28;20146;-58
2023/03/16 08:46:43;;;;;;;2.40;1.67;;;23.60;29.40;;;;;;5072179;28;20117;-58
2023/03/16 08:49:12;;;;;;;1.80;1.67;;;23.60;29.30;;;;;;5058991;28;20420;-58
2023/03/16 08:51:41;;;;;;;2.17;1.60;;;23.60;29.30;;;;;;5075987;28;20450;-59
2023/03/16 08:54:11;;;;;;;3.08;1.92;;;23.70;29.30;;;;;;5074404;28;20458;-61
2023/03/16 08:56:38;;;;;;;2.40;1.77;;;23.70;29.30;;;;;;5073201;28;20449;-59
2023/03/16 08:59:05;;;;;;;1.75;1.65;;;23.70;29.20;;;;;;5077434;28;20048;-60
2023/03/16 09:01:34;;;;;;;1.77;1.63;;;23.70;29.20;;;;;;5074547;28;20851;-60
2023/03/16 09:04:02;;;;;;;2.50;1.85;;;23.80;29.10;;;;;;5079084;28;21169;-61
2023/03/16 09:06:30;;;;;;;2.83;1.48;;;23.80;29.10;;;;;;5077964;28;20068;-59
2023/03/16 09:08:57;;;;;;;2.85;1.85;;;23.80;29.10;;;;;;5079534;28;20059;-58
2023/03/16 09:11:29;;;;;;;1.92;1.80;;;23.90;29.00;;;;;;5077708;28;20055;-60
2023/03/16 09:13:57;;;;;;;3.13;1.70;;;23.90;28.90;;;;;;5080309;28;20101;-59
2023/03/16 09:16:24;;;;;;;2.92;2.05;;;23.90;28.90;;;;;;5076751;28;20519;-59
2023/03/16 09:18:52;;;;;;;1.63;1.50;;;23.90;28.80;;;;;;5078325;28;20051;-59
2023/03/16 09:21:20;;;;;;;3.10;1.85;;;24.00;28.80;;;;;;5078391;28;20496;-59
2023/03/16 09:23:47;;;;;;;1.75;1.63;;;24.10;28.90;;;;;;5080196;28;20477;-59
2023/03/16 09:26:16;;;;;;;2.40;1.55;;;24.10;28.80;;;;;;5079372;28;20125;-59
2023/03/16 09:28:43;;;;;;;2.67;1.65;;;24.10;28.70;;;;;;5081252;28;20131;-59
2023/03/16 09:31:17;;;;;;;2.40;1.77;;;24.10;28.60;;;;;;5082558;28;21655;-58
2023/03/16 09:33:45;;;;;;;1.63;1.52;;;24.20;28.60;;;;;;5081947;28;20082;-58
2023/03/16 09:36:13;;;;;;;4.55;2.03;;;24.20;28.50;;;;;;5079513;28;20127;-59
2023/03/16 09:38:41;;;;;;;2.90;1.77;;;24.30;28.60;;;;;;5080386;28;20052;-58
2023/03/16 09:41:19;;;;;;;1.75;1.48;;;24.30;28.50;;;;;;5074604;28;20090;-60
2023/03/16 09:44:19;;;;;;;1.80;1.70;;;24.30;28.50;;;;;;5075893;28;20496;-59
2023/03/16 09:46:49;;;;;;;2.47;1.67;;;24.30;28.50;;;;;;5080686;28;20049;-59
2023/03/16 09:49:19;;;;;;;3.63;1.55;;;24.30;28.70;;;;;;5081727;28;20488;-58
2023/03/16 09:51:52;;;;;;;;;;;24.30;29.00;;;;;;5078779;28;20148;-58
2023/03/16 09:54:38;;;;;;;3.40;1.67;;;24.30;28.90;;;;;;5081361;28;20351;-58
2023/03/16 09:57:25;;;;;;;3.60;1.98;;;24.40;29.00;;;;;;5080619;28;20099;-56
2023/03/16 09:59:53;;;;;;;1.85;1.67;;;24.40;29.10;;;;;;5081391;28;20048;-57
2023/03/16 10:02:52;;;;;;;1.92;1.60;;;24.40;29.10;;;;;;5079916;28;20535;-54
2023/03/16 10:05:22;;;;;;;4.10;1.48;;;24.40;29.10;;;;;;5076631;28;21461;-57
2023/03/16 10:08:19;;;;;;;5.45;2.08;;;24.50;29.10;;;;;;5078890;28;20045;-60
2023/03/16 10:11:19;;;;;;;3.05;1.60;;;24.50;29.00;;;;;;5076804;28;20081;-60
2023/03/16 10:14:26;;;;;;;3.33;1.60;;;24.50;29.00;;;;;;5076370;28;20044;-61
2023/03/16 10:17:04;;;;;;;2.38;1.55;;;24.50;28.90;;;;;;5072106;28;20052;-60
2023/03/16 10:19:53;;;;;;;1.75;1.65;;;24.50;28.80;;;;;;5067313;28;20093;-59
2023/03/16 10:22:25;;;;;;;4.78;2.10;;;24.50;29.20;;;;;;5076377;28;20553;-60
2023/03/16 10:25:13;;;;;;;1.80;1.50;;;24.50;28.70;;;;;;5073335;28;20051;-60
2023/03/16 10:27:43;;;;;;;3.33;1.50;;;24.50;28.70;;;;;;5076754;28;20091;-59
2023/03/16 10:30:23;;;;;;;3.17;1.70;;;24.50;29.20;;;;;;5074475;28;20044;-60
2023/03/16 10:32:51;;;;;;;3.55;1.55;;;24.50;28.70;;;;;;5081427;28;20048;-59
2023/03/16 10:35:42;;;;;;;4.63;1.60;;;24.60;28.80;;;;;;5078441;28;20047;-60
2023/03/16 10:38:37;;;;;;;3.90;1.55;;;24.60;28.60;;;;;;5079256;28;20094;-59
2023/03/16 10:41:22;;;;;;;3.15;1.58;;;24.60;28.70;;;;;;5077761;28;20078;-60
2023/03/16 10:43:54;;;;;;;7.45;1.70;;;24.60;28.70;;;;;;5078488;28;20501;-60
2023/03/16 10:46:22;;;;;;;2.03;1.42;;;24.60;28.70;;;;;;5075194;28;20488;-57
2023/03/16 10:49:01;;;;;;;2.75;1.67;;;24.70;28.70;;;;;;5076598;28;20109;-59
2023/03/16 10:51:35;;;;;;;2.35;1.67;;;24.70;28.70;;;;;;5081009;28;20052;-59
2023/03/16 10:54:15;;;;;;;1.70;1.60;;;24.70;28.80;;;;;;5077060;28;20124;-61
2023/03/16 10:56:42;;;;;;;1.73;1.63;;;24.70;28.80;;;;;;5079451;28;20459;-60
2023/03/16 10:59:14;;;;;;;2.58;1.38;;;24.70;28.70;;;;;;5080557;28;20105;-60
2023/03/16 11:01:48;;;;;;;3.22;1.40;;;24.70;28.60;;;;;;5078041;28;20048;-60
2023/03/16 11:04:18;;;;;;;3.95;1.23;;;24.70;28.40;;;;;;5081322;28;20075;-60
2023/03/16 11:06:56;;;;;;;4.15;2.22;;;24.70;28.20;;;;;;5076687;28;20052;-64
2023/03/16 11:09:35;;;;;;;2.38;1.33;;;24.70;28.10;;;;;;5079032;28;20492;-61
2023/03/16 11:12:29;;;;;;;3.90;1.17;;;24.70;28.10;;;;;;5076043;28;20135;-59
2023/03/16 11:15:11;;;;;;;4.70;1.40;;;24.70;27.90;;;;;;5079142;28;20950;-59
2023/03/16 11:17:55;;;;;;;1.50;1.40;;;24.70;27.80;;;;;;5077051;28;20052;-59
2023/03/16 11:20:27;;;;;;;2.05;1.85;;;24.70;27.80;;;;;;5079510;28;20080;-61
2023/03/16 11:22:59;;;;;;;1.90;1.55;;;24.70;27.70;;;;;;5074631;28;20143;-60
2023/03/16 11:25:37;;;;;;;1.55;1.45;;;24.70;27.50;;;;;;5078868;28;20079;-61
2023/03/16 11:28:36;;;;;;;1.38;1.27;;;24.80;28.00;;;;;;5075167;28;20090;-60
2023/03/16 11:31:32;;;;;;;1.13;1.00;;;24.80;27.60;;;;;;5080198;28;20043;-61
2023/03/16 11:34:01;;;;;;;1.75;1.30;;;24.70;27.50;;;;;;5080120;28;20454;-60
2023/03/16 11:36:50;;;;;;;1.45;1.05;;;24.80;27.50;;;;;;5079706;28;20450;-60
2023/03/16 11:39:46;;;;;;;1.42;1.20;;;24.80;27.40;;;;;;5079150;28;20097;-61
2023/03/16 11:42:41;;;;;;;3.67;1.65;;;24.80;27.00;;;;;;5079214;28;20131;-61
2023/03/16 11:45:36;;;;;;;2.72;1.20;;;24.80;26.90;;;;;;5079845;28;20085;-61
2023/03/16 11:48:20;;;;;;;1.90;1.73;;;24.80;27.00;;;;;;5080275;28;20040;-58
2023/03/16 11:51:12;;;;;;;1.20;1.10;;;24.80;24.90;;;;;;5078462;28;20110;-59
2023/03/16 11:54:10;;;;;;;1.38;1.10;;;24.70;25.70;;;;;;5073185;28;20571;-59
2023/03/16 11:56:45;;;;;;;1.02;1.02;;;24.70;26.00;;;;;;5076460;28;20055;-59
2023/03/16 11:59:42;;;;;;;3.58;1.42;;;24.70;26.20;;;;;;5077800;28;20056;-59
2023/03/16 12:02:37;;;;;;;3.00;1.05;;;24.70;26.40;;;;;;5077949;28;20635;-58
2023/03/16 12:05:44;;;;;;;2.60;1.38;;;24.70;26.50;;;;;;5081313;28;20044;-59
2023/03/16 12:08:43;;;;;;;1.17;1.10;;;24.70;26.60;;;;;;5083064;28;20544;-59
2023/03/16 12:11:37;;;;;;;1.23;0.77;;;24.70;26.50;;;;;;5081905;28;20078;-61
2023/03/16 12:14:32;;;;;;;1.35;1.25;;;24.70;27.30;;;;;;5085307;28;20055;-60
2023/03/16 12:17:07;;;;;;;1.00;1.00;;;24.70;27.00;;;;;;5084578;28;20044;-59
2023/03/16 12:19:52;;;;;;;1.23;1.10;;;24.70;27.20;;;;;;5066097;28;20374;-60
2023/03/16 12:22:27;;;;;;;2.88;1.38;;;24.80;27.20;;;;;;5082925;28;21723;-60
2023/03/16 12:24:54;;;;;;;3.72;1.17;;;24.70;27.20;;;;;;5084694;28;20040;-61
2023/03/16 12:27:32;;;;;;;1.52;1.10;;;24.80;27.30;;;;;;5080866;28;20056;-60
2023/03/16 12:30:34;;;;;;;0.98;0.90;;;24.70;27.30;;;;;;5083670;28;20052;-60
2023/03/16 12:33:27;;;;;;;1.02;0.98;;;24.80;27.30;;;;;;5082697;28;20131;-59
2023/03/16 12:36:33;;;;;;;0.90;0.90;;;24.80;27.00;;;;;;5083436;28;20036;-58
2023/03/16 12:39:10;;;;;;;2.53;1.27;;;24.80;27.20;;;;;;5078148;28;20046;-60
2023/03/16 12:42:12;;;;;;;1.10;1.00;;;24.80;26.90;;;;;;5081491;28;20071;-62
2023/03/16 12:45:07;;;;;;;1.60;1.33;;;24.80;26.70;;;;;;5084573;28;20397;-58
2023/03/16 12:48:03;;;;;;;0.82;0.73;;;24.80;26.60;;;;;;5092134;28;20522;-58
2023/03/16 12:50:30;;;;;;;1.90;1.08;;;24.80;26.50;;;;;;5078901;28;20567;-59
2023/03/16 12:52:58;;;;;;;0.77;0.63;;;24.90;26.30;;;;;;5081341;28;20127;-57
2023/03/16 12:55:43;;;;;;;2.05;0.63;;;24.90;26.30;;;;;;5082649;28;20048;-59
2023/03/16 12:58:11;;;;;;;1.60;0.77;;;24.90;26.60;;;;;;5082831;28;20063;-59
2023/03/16 13:00:41;;;;;;;1.17;0.90;;;24.90;26.70;;;;;;5083106;28;20077;-60
2023/03/16 13:03:21;;;;;;;1.60;0.90;;;24.90;26.70;;;;;;5083170;28;20074;-62
2023/03/16 13:05:58;;;;;;;4.60;1.35;;;24.90;26.70;;;;;;5081003;28;20070;-61
2023/03/16 13:08:27;;;;;;;0.80;0.80;;;24.90;26.90;;;;;;5083727;28;20131;-60
2023/03/16 13:11:08;;;;;;;3.45;0.82;;;24.90;27.00;;;;;;5081014;28;20435;-61
2023/03/16 13:13:48;;;;;;;4.28;1.10;;;24.90;27.00;;;;;;5080975;28;20058;-61